createdAt,value
2018-03-27T00:04:36.631Z," 6.67"
2018-03-27T00:09:36.274Z," 6.51"
2018-03-27T00:14:36.189Z," 6.42"
2018-03-27T00:19:31.005Z," 6.57"
2018-03-27T00:24:30.611Z," 6.12"
2018-03-27T00:29:25.070Z," 6.16"
2018-03-27T00:34:24.231Z," 6.41"
2018-03-27T00:39:24.078Z," 6.39"
2018-03-27T00:44:23.238Z," 6.52"
2018-03-27T00:49:25.192Z," 6.54"
2018-03-27T00:54:23.781Z," 6.26"
2018-03-27T00:59:18.533Z," 6.39"
2018-03-27T01:04:15.218Z," 6.41"
2018-03-27T01:09:13.072Z," 6.42"
2018-03-27T01:14:08.453Z," 6.44"
2018-03-27T01:19:08.341Z," 6.49"
2018-03-27T01:24:06.952Z," 6.52"
2018-03-27T01:29:02.755Z," 6.59"
2018-03-27T01:33:58.131Z," 6.46"
2018-03-27T01:38:54.238Z," 6.63"
2018-03-27T01:43:54.801Z," 6.52"
2018-03-27T01:48:50.535Z," 6.51"
2018-03-27T01:53:45.893Z," 6.59"
2018-03-27T01:58:46.138Z," 6.45"
2018-03-27T02:03:40.719Z," 6.48"
2018-03-27T02:08:36.465Z," 6.51"
2018-03-27T02:13:34.229Z," 6.51"
2018-03-27T02:18:33.219Z," 6.36"
2018-03-27T02:23:28.413Z," 6.41"
2018-03-27T02:28:23.884Z," 6.14"
2018-03-27T02:33:20.688Z," 6.22"
2018-03-27T02:38:17.078Z," 6.38"
2018-03-27T02:43:12.520Z," 6.26"
2018-03-27T02:48:09.318Z," 6.42"
2018-03-27T02:53:04.678Z," 6.01"
2018-03-27T02:58:04.124Z," 5.89"
2018-03-27T03:03:03.294Z," 5.73"
2018-03-27T03:08:01.661Z," 5.48"
2018-03-27T03:12:56.190Z," 5.29"
2018-03-27T03:17:55.696Z," 5.26"
2018-03-27T03:22:54.337Z," 5.25"
2018-03-27T03:27:53.172Z," 5.23"
2018-03-27T03:32:49.799Z," 4.97"
2018-03-27T03:37:49.098Z," 4.82"
2018-03-27T03:42:48.812Z," 4.92"
2018-03-27T03:47:47.483Z," 5.21"
2018-03-27T03:52:42.325Z," 4.97"
2018-03-27T03:57:42.800Z," 4.82"
2018-03-27T04:02:42.321Z," 4.90"
2018-03-27T04:07:42.506Z," 4.94"
2018-03-27T04:12:36.578Z," 4.90"
2018-03-27T04:17:33.397Z," 5.25"
2018-03-27T04:22:29.039Z," 5.39"
2018-03-27T04:27:29.400Z," 5.64"
2018-03-27T04:32:25.763Z," 5.56"
2018-03-27T04:37:24.963Z," 5.20"
2018-03-27T04:42:20.486Z," 5.10"
2018-03-27T04:47:16.110Z," 5.14"
2018-03-27T04:52:17.461Z," 5.17"
2018-03-27T04:57:16.388Z," 4.96"
2018-03-27T05:02:15.146Z," 5.10"
2018-03-27T05:07:15.057Z," 5.23"
2018-03-27T05:12:09.743Z," 4.93"
2018-03-27T05:17:06.143Z," 5.04"
2018-03-27T05:22:05.314Z," 5.08"
2018-03-27T05:27:00.277Z," 5.12"
2018-03-27T05:31:59.976Z," 5.10"
2018-03-27T05:36:58.551Z," 5.08"
2018-03-27T05:41:57.469Z," 4.96"
2018-03-27T05:46:56.289Z," 4.73"
2018-03-27T05:51:51.127Z," 4.49"
2018-03-27T05:56:51.378Z," 4.48"
2018-03-27T06:01:46.749Z," 4.78"
2018-03-27T06:06:47.191Z," 4.96"
2018-03-27T06:11:42.067Z," 5.11"
2018-03-27T06:16:37.808Z," 5.23"
2018-03-27T06:21:34.438Z," 5.38"
2018-03-27T06:26:30.525Z," 5.51"
2018-03-27T06:31:26.626Z," 5.89"
2018-03-27T06:36:23.478Z," 5.93"
2018-03-27T06:41:23.209Z," 6.26"
2018-03-27T06:46:21.786Z," 6.02"
2018-03-27T06:51:22.709Z," 6.20"
2018-03-27T06:56:18.554Z," 6.35"
2018-03-27T07:01:19.208Z," 6.48"
2018-03-27T07:06:15.344Z," 6.48"
2018-03-27T07:11:16.080Z," 6.75"
2018-03-27T07:16:15.052Z," 6.44"
2018-03-27T07:21:11.151Z," 6.69"
2018-03-27T07:26:11.337Z," 6.66"
2018-03-27T07:31:06.199Z," 6.69"
2018-03-27T07:36:01.872Z," 6.77"
2018-03-27T07:41:02.886Z," 6.57"
2018-03-27T07:46:02.543Z," 6.72"
2018-03-27T07:50:58.333Z," 6.82"
2018-03-27T07:55:54.138Z," 7.02"
2018-03-27T08:00:53.949Z," 6.72"
2018-03-27T08:05:48.705Z," 6.59"
2018-03-27T08:10:46.459Z," 6.85"
2018-03-27T08:15:41.748Z," 7.13"
2018-03-27T08:20:42.451Z," 6.39"
2018-03-27T08:25:42.738Z," 6.84"
2018-03-27T08:30:43.373Z," 6.78"
2018-03-27T08:35:42.542Z," 6.82"
2018-03-27T08:40:41.254Z," 6.48"
2018-03-27T08:45:39.428Z," 6.59"
2018-03-27T08:50:36.915Z," 6.95"
2018-03-27T08:55:33.550Z," 6.99"
2018-03-27T09:00:34.434Z," 7.21"
2018-03-27T09:05:36.992Z," 8.03"
2018-03-27T09:10:37.713Z," 8.31"
2018-03-27T09:15:32.776Z," 8.78"
2018-03-27T09:20:35.668Z," 8.82"
2018-03-27T09:25:35.447Z," 8.53"
2018-03-27T09:30:30.752Z," 8.89"
2018-03-27T09:35:27.765Z," 9.19"
2018-03-27T09:40:28.231Z," 8.97"
2018-03-27T09:45:29.757Z," 9.48"
2018-03-27T09:50:29.870Z," 9.55"
2018-03-27T10:00:40.289Z," 9.65"
2018-03-27T10:10:49.227Z," 8.97"
2018-03-27T10:15:51.603Z," 9.99"
2018-03-27T10:25:52.960Z,10.38
2018-03-27T10:30:53.553Z,11.26
2018-03-27T10:35:49.853Z,11.37
2018-03-27T10:40:50.592Z,11.77
2018-03-27T10:45:51.704Z,12.73
2018-03-27T10:50:51.952Z,12.86
2018-03-27T10:55:51.814Z,13.16
2018-03-27T11:00:51.654Z,11.77
2018-03-27T11:05:49.785Z,12.31
2018-03-27T11:10:48.546Z,12.06
2018-03-27T11:15:47.966Z,12.27
2018-03-27T11:20:48.966Z,12.15
2018-03-27T11:25:44.346Z,12.27
2018-03-27T11:30:44.486Z,11.84
2018-03-27T11:35:44.136Z,12.35
2018-03-27T11:40:44.168Z,12.86
2018-03-27T11:45:40.165Z,13.18
2018-03-27T11:50:40.801Z,13.83
2018-03-27T11:55:43.353Z,14.25
2018-03-27T12:05:40.010Z,13.20
2018-03-27T12:10:36.264Z,13.71
2018-03-27T12:15:36.808Z,13.01
2018-03-27T12:25:38.892Z,12.36
2018-03-27T12:30:37.099Z,12.32
2018-03-27T12:35:32.013Z,12.45
2018-03-27T12:40:32.178Z,12.39
2018-03-27T12:45:32.820Z,12.29
2018-03-27T12:50:33.934Z,11.99
2018-03-27T12:55:29.648Z,12.31
2018-03-27T13:00:29.857Z,12.17
2018-03-27T13:05:30.183Z,12.12
2018-03-27T13:10:29.748Z,12.06
2018-03-27T13:15:28.611Z,11.88
2018-03-27T13:20:28.640Z,11.78
2018-03-27T13:25:22.911Z,11.88
2018-03-27T13:30:22.691Z,11.86
2018-03-27T13:35:22.517Z,11.99
2018-03-27T13:40:20.068Z,12.07
2018-03-27T13:45:20.392Z,11.81
2018-03-27T13:50:19.586Z,11.59
2018-03-27T13:55:17.867Z,11.70
2018-03-27T14:00:16.560Z,11.75
2018-03-27T14:05:11.493Z,11.63
2018-03-27T14:10:07.308Z,11.59
2018-03-27T14:15:08.143Z,11.51
2018-03-27T14:20:03.985Z,11.72
2018-03-27T14:25:04.444Z,11.80
2018-03-27T14:29:59.916Z,11.91
2018-03-27T14:34:59.619Z,11.90
2018-03-27T14:39:59.572Z,11.70
2018-03-27T14:44:55.160Z,11.80
2018-03-27T14:49:50.705Z,11.87
2018-03-27T14:54:47.268Z,11.80
2018-03-27T14:59:43.967Z,11.65
2018-03-27T15:04:43.124Z,11.52
2018-03-27T15:09:43.423Z,11.73
2018-03-27T15:14:42.327Z,11.60
2018-03-27T15:19:41.060Z,11.59
2018-03-27T15:24:39.673Z,11.26
2018-03-27T15:29:38.626Z,10.96
2018-03-27T15:34:34.954Z,11.04
2018-03-27T15:39:31.700Z,10.90
2018-03-27T15:44:31.034Z,10.81
2018-03-27T15:49:30.846Z,10.79
2018-03-27T15:54:29.350Z,10.79
2018-03-27T15:59:28.461Z,10.75
2018-03-27T16:04:25.036Z,10.81
2018-03-27T16:09:21.479Z,10.75
2018-03-27T16:14:22.375Z,10.63
2018-03-27T16:19:22.026Z,10.51
2018-03-27T16:24:16.762Z,10.53
2018-03-27T16:29:16.281Z,10.33
2018-03-27T16:34:15.777Z,10.15
2018-03-27T16:39:11.359Z,10.04
2018-03-27T16:44:06.677Z," 9.92"
2018-03-27T16:49:03.095Z," 9.68"
2018-03-27T16:54:03.961Z," 9.50"
2018-03-27T16:59:03.372Z," 9.32"
2018-03-27T17:03:57.827Z," 9.36"
2018-03-27T17:08:53.498Z," 9.31"
2018-03-27T17:13:49.622Z," 9.37"
2018-03-27T17:18:49.617Z," 9.28"
2018-03-27T17:23:44.618Z," 9.29"
2018-03-27T17:28:40.216Z," 9.18"
2018-03-27T17:33:36.060Z," 9.08"
2018-03-27T17:38:32.726Z," 9.10"
2018-03-27T17:43:28.338Z," 9.02"
2018-03-27T17:48:28.678Z," 9.02"
2018-03-27T17:53:28.296Z," 9.00"
2018-03-27T17:58:27.065Z," 8.89"
2018-03-27T18:03:21.791Z," 8.84"
2018-03-27T18:08:21.690Z," 8.76"
2018-03-27T18:13:16.494Z," 8.82"
2018-03-27T18:18:13.358Z," 8.63"
2018-03-27T18:23:08.760Z," 8.60"
2018-03-27T18:28:04.459Z," 8.70"
2018-03-27T18:33:01.523Z," 8.51"
2018-03-27T18:38:02.624Z," 8.64"
2018-03-27T18:42:57.508Z," 8.60"
2018-03-27T18:47:53.146Z," 8.63"
2018-03-27T18:52:49.888Z," 8.56"
2018-03-27T18:57:49.454Z," 8.58"
2018-03-27T19:02:44.684Z," 8.66"
2018-03-27T19:07:44.720Z," 8.63"
2018-03-27T19:12:44.578Z," 8.78"
2018-03-27T19:17:40.313Z," 8.61"
2018-03-27T19:22:35.665Z," 8.60"
2018-03-27T19:27:35.361Z," 8.49"
2018-03-27T19:32:35.647Z," 8.51"
2018-03-27T19:37:34.271Z," 8.34"
2018-03-27T19:42:29.052Z," 8.31"
2018-03-27T19:47:28.525Z," 8.18"
2018-03-27T19:52:28.930Z," 8.12"
2018-03-27T19:57:24.332Z," 8.26"
2018-03-27T20:02:23.882Z," 8.06"
2018-03-27T20:07:18.423Z," 8.13"
2018-03-27T20:12:18.072Z," 7.94"
2018-03-27T20:17:13.212Z," 8.16"
2018-03-27T20:22:13.654Z," 8.03"
2018-03-27T20:27:12.384Z," 8.18"
2018-03-27T20:32:06.944Z," 8.24"
2018-03-27T20:37:02.655Z," 8.12"
2018-03-27T20:41:58.289Z," 8.10"
2018-03-27T20:46:53.884Z," 7.98"
2018-03-27T20:51:53.288Z," 7.98"
2018-03-27T20:56:53.434Z," 7.97"
2018-03-27T21:01:52.129Z," 7.91"
2018-03-27T21:06:47.061Z," 8.05"
2018-03-27T21:11:43.295Z," 8.12"
2018-03-27T21:16:40.204Z," 8.09"
2018-03-27T21:21:36.623Z," 8.12"
2018-03-27T21:26:36.011Z," 8.10"
2018-03-27T21:31:34.565Z," 8.08"
2018-03-27T21:36:34.165Z," 8.20"
2018-03-27T21:41:32.793Z," 8.18"
2018-03-27T21:46:27.627Z," 8.20"
2018-03-27T21:51:23.468Z," 8.09"
2018-03-27T21:56:24.035Z," 8.13"
2018-03-27T22:01:19.396Z," 8.20"
2018-03-27T22:06:17.766Z," 8.19"
2018-03-27T22:11:12.956Z," 8.15"
2018-03-27T22:16:13.574Z," 8.23"
2018-03-27T22:21:09.331Z," 7.98"
2018-03-27T22:26:05.037Z," 8.19"
2018-03-27T22:31:01.797Z," 8.13"
2018-03-27T22:36:01.106Z," 8.20"
2018-03-27T22:40:56.293Z," 8.20"
2018-03-27T22:45:56.142Z," 8.15"
2018-03-27T22:50:55.105Z," 8.10"
2018-03-27T22:55:51.003Z," 8.18"
2018-03-27T23:00:46.588Z," 8.18"
2018-03-27T23:05:43.848Z," 8.24"
2018-03-27T23:10:43.351Z," 8.16"
2018-03-27T23:15:38.216Z," 8.12"
2018-03-27T23:20:33.910Z," 8.06"
2018-03-27T23:25:30.762Z," 8.24"
2018-03-27T23:30:30.346Z," 8.26"
2018-03-27T23:35:31.150Z," 8.12"
2018-03-27T23:40:26.958Z," 8.13"
2018-03-27T23:50:35.616Z," 8.15"
2018-03-27T23:55:29.410Z," 8.08"
